Terminal Aerodrome Forecast
Issued by NWS

Home | Current Version | Previous Version | Text Only | Print | Product List | Glossary Off
Versions: 1 2 3 4 5 6 7 8 9 10 11 12 13 14

000
FTUS45 KGGW 311700
TAFGDV
TAF
KGDV 311720Z 3118/0118 15017KT P6SM BKN160
     FM010000 14013KT P6SM SCT210
     FM010600 15007KT P6SM FEW230
      AMD LTD TO CLD VIS AND WIND=

USA.gov is the U.S. government's official web portal to all federal, state and local government web resources and services.